sensor_id;sensor_type;location;lat;lon;timestamp;pressure;altitude;pressure_sealevel;temperature;humidity
76605;BME280;73179;50.978;16.998;2024-03-06T00:01:55;100422.50;;;3.89;100.00
76605;BME280;73179;50.978;16.998;2024-03-06T00:04:21;100469.75;;;4.18;100.00
76605;BME280;73179;50.978;16.998;2024-03-06T00:06:47;100429.47;;;3.90;100.00
76605;BME280;73179;50.978;16.998;2024-03-06T00:09:13;100455.34;;;4.08;100.00
76605;BME280;73179;50.978;16.998;2024-03-06T00:11:39;100446.72;;;3.94;100.00
76605;BME280;73179;50.978;16.998;2024-03-06T00:14:05;100453.13;;;4.05;100.00
76605;BME280;73179;50.978;16.998;2024-03-06T00:16:32;100482.94;;;4.20;100.00
76605;BME280;73179;50.978;16.998;2024-03-06T00:18:57;100426.09;;;3.83;100.00
76605;BME280;73179;50.978;16.998;2024-03-06T00:21:23;100392.81;;;3.67;100.00
76605;BME280;73179;50.978;16.998;2024-03-06T00:23:49;100457.31;;;4.01;100.00
76605;BME280;73179;50.978;16.998;2024-03-06T00:26:15;100490.84;;;4.15;100.00
76605;BME280;73179;50.978;16.998;2024-03-06T00:28:41;100476.16;;;4.06;100.00
76605;BME280;73179;50.978;16.998;2024-03-06T00:31:06;100475.00;;;4.02;100.00
76605;BME280;73179;50.978;16.998;2024-03-06T00:33:32;100402.84;;;3.60;100.00
76605;BME280;73179;50.978;16.998;2024-03-06T00:35:58;100484.56;;;4.09;100.00
76605;BME280;73179;50.978;16.998;2024-03-06T00:38:24;100492.69;;;4.14;100.00
76605;BME280;73179;50.978;16.998;2024-03-06T00:40:50;100488.97;;;4.04;100.00
76605;BME280;73179;50.978;16.998;2024-03-06T00:43:16;100439.41;;;3.78;100.00
76605;BME280;73179;50.978;16.998;2024-03-06T00:45:42;100449.63;;;3.81;100.00
76605;BME280;73179;50.978;16.998;2024-03-06T00:48:07;100462.06;;;3.87;100.00
76605;BME280;73179;50.978;16.998;2024-03-06T00:50:33;100412.72;;;3.60;100.00
76605;BME280;73179;50.978;16.998;2024-03-06T00:52:59;100472.31;;;3.90;100.00
76605;BME280;73179;50.978;16.998;2024-03-06T00:55:25;100443.00;;;3.72;100.00
76605;BME280;73179;50.978;16.998;2024-03-06T00:57:51;100512.28;;;4.15;100.00
76605;BME280;73179;50.978;16.998;2024-03-06T01:00:17;100441.59;;;3.81;100.00
76605;BME280;73179;50.978;16.998;2024-03-06T01:02:43;100431.47;;;3.71;100.00
76605;BME280;73179;50.978;16.998;2024-03-06T01:05:09;100446.13;;;3.80;100.00
76605;BME280;73179;50.978;16.998;2024-03-06T01:07:40;100501.09;;;4.06;100.00
76605;BME280;73179;50.978;16.998;2024-03-06T01:10:06;100474.66;;;3.87;100.00
76605;BME280;73179;50.978;16.998;2024-03-06T01:12:32;100461.38;;;3.80;100.00
76605;BME280;73179;50.978;16.998;2024-03-06T01:14:58;100499.91;;;4.02;100.00
76605;BME280;73179;50.978;16.998;2024-03-06T01:17:24;100487.94;;;3.93;100.00
76605;BME280;73179;50.978;16.998;2024-03-06T01:19:51;100495.16;;;4.04;100.00
76605;BME280;73179;50.978;16.998;2024-03-06T01:22:17;100515.41;;;4.23;100.00
76605;BME280;73179;50.978;16.998;2024-03-06T01:24:43;100522.88;;;4.21;100.00
76605;BME280;73179;50.978;16.998;2024-03-06T01:27:09;100519.50;;;4.14;100.00
76605;BME280;73179;50.978;16.998;2024-03-06T01:29:35;100494.56;;;3.91;100.00
76605;BME280;73179;50.978;16.998;2024-03-06T01:32:01;100470.47;;;3.79;100.00
76605;BME280;73179;50.978;16.998;2024-03-06T01:34:28;100448.00;;;3.68;100.00
76605;BME280;73179;50.978;16.998;2024-03-06T01:36:54;100468.50;;;3.86;100.00
76605;BME280;73179;50.978;16.998;2024-03-06T01:39:21;100505.28;;;4.14;100.00
76605;BME280;73179;50.978;16.998;2024-03-06T01:41:48;100484.09;;;3.89;100.00
76605;BME280;73179;50.978;16.998;2024-03-06T01:44:15;100524.03;;;4.14;100.00
76605;BME280;73179;50.978;16.998;2024-03-06T01:46:40;100449.97;;;3.61;100.00
76605;BME280;73179;50.978;16.998;2024-03-06T01:49:07;100492.69;;;3.91;100.00
76605;BME280;73179;50.978;16.998;2024-03-06T01:51:35;100308.06;;;2.68;100.00
76605;BME280;73179;50.978;16.998;2024-03-06T01:54:02;100422.03;;;3.46;100.00
76605;BME280;73179;50.978;16.998;2024-03-06T01:56:33;100410.03;;;3.36;100.00
76605;BME280;73179;50.978;16.998;2024-03-06T01:59:01;100457.31;;;3.66;100.00
76605;BME280;73179;50.978;16.998;2024-03-06T02:01:28;100513.31;;;4.02;100.00
76605;BME280;73179;50.978;16.998;2024-03-06T02:03:54;100491.88;;;3.91;100.00
76605;BME280;73179;50.978;16.998;2024-03-06T02:06:21;100481.28;;;3.84;100.00
76605;BME280;73179;50.978;16.998;2024-03-06T02:08:47;100490.38;;;3.95;100.00
76605;BME280;73179;50.978;16.998;2024-03-06T02:11:13;100499.00;;;3.97;100.00
76605;BME280;73179;50.978;16.998;2024-03-06T02:13:39;100458.34;;;3.65;100.00
76605;BME280;73179;50.978;16.998;2024-03-06T02:16:05;100482.09;;;3.73;100.00
76605;BME280;73179;50.978;16.998;2024-03-06T02:18:32;100493.28;;;3.81;100.00
76605;BME280;73179;50.978;16.998;2024-03-06T02:20:57;100516.00;;;4.02;100.00
76605;BME280;73179;50.978;16.998;2024-03-06T02:23:23;100484.19;;;3.82;100.00
76605;BME280;73179;50.978;16.998;2024-03-06T02:25:49;100457.06;;;3.67;100.00
76605;BME280;73179;50.978;16.998;2024-03-06T02:28:16;100506.91;;;4.03;100.00
76605;BME280;73179;50.978;16.998;2024-03-06T02:30:42;100530.81;;;4.05;100.00
76605;BME280;73179;50.978;16.998;2024-03-06T02:33:09;100515.63;;;3.99;100.00
76605;BME280;73179;50.978;16.998;2024-03-06T02:35:35;100473.47;;;3.71;100.00
76605;BME280;73179;50.978;16.998;2024-03-06T02:38:03;100529.03;;;3.99;100.00
76605;BME280;73179;50.978;16.998;2024-03-06T02:40:32;100483.41;;;3.70;100.00
76605;BME280;73179;50.978;16.998;2024-03-06T02:42:58;100522.97;;;3.92;100.00
76605;BME280;73179;50.978;16.998;2024-03-06T02:45:24;100513.78;;;3.88;100.00
76605;BME280;73179;50.978;16.998;2024-03-06T02:47:50;100513.44;;;3.84;100.00
76605;BME280;73179;50.978;16.998;2024-03-06T02:50:16;100514.13;;;3.79;100.00
76605;BME280;73179;50.978;16.998;2024-03-06T02:52:42;100497.22;;;3.67;100.00
76605;BME280;73179;50.978;16.998;2024-03-06T02:55:08;100493.72;;;3.67;100.00
76605;BME280;73179;50.978;16.998;2024-03-06T02:57:34;100427.22;;;3.29;100.00
76605;BME280;73179;50.978;16.998;2024-03-06T03:00:00;100400.09;;;3.14;100.00
76605;BME280;73179;50.978;16.998;2024-03-06T03:02:26;100486.41;;;3.62;100.00
76605;BME280;73179;50.978;16.998;2024-03-06T03:04:51;100514.81;;;3.87;100.00
76605;BME280;73179;50.978;16.998;2024-03-06T03:07:18;100526.94;;;3.89;100.00
76605;BME280;73179;50.978;16.998;2024-03-06T03:09:47;100511.91;;;3.76;100.00
76605;BME280;73179;50.978;16.998;2024-03-06T03:12:13;100519.72;;;3.78;100.00
76605;BME280;73179;50.978;16.998;2024-03-06T03:14:42;100519.69;;;3.66;100.00
76605;BME280;73179;50.978;16.998;2024-03-06T03:17:09;100542.06;;;3.83;100.00
76605;BME280;73179;50.978;16.998;2024-03-06T03:19:34;100548.94;;;3.91;100.00
76605;BME280;73179;50.978;16.998;2024-03-06T03:22:00;100504.50;;;3.49;100.00
76605;BME280;73179;50.978;16.998;2024-03-06T03:24:30;100493.72;;;3.44;100.00
76605;BME280;73179;50.978;16.998;2024-03-06T03:26:56;100557.78;;;3.80;100.00
76605;BME280;73179;50.978;16.998;2024-03-06T03:29:22;100551.25;;;3.76;100.00
76605;BME280;73179;50.978;16.998;2024-03-06T03:31:48;100517.09;;;3.60;100.00
76605;BME280;73179;50.978;16.998;2024-03-06T03:34:14;100531.31;;;3.60;100.00
76605;BME280;73179;50.978;16.998;2024-03-06T03:36:41;100533.16;;;3.60;100.00
76605;BME280;73179;50.978;16.998;2024-03-06T03:39:07;100536.31;;;3.57;100.00
76605;BME280;73179;50.978;16.998;2024-03-06T03:41:45;100535.94;;;3.53;100.00
76605;BME280;73179;50.978;16.998;2024-03-06T03:44:16;100518.53;;;3.32;100.00
76605;BME280;73179;50.978;16.998;2024-03-06T03:46:43;100557.00;;;3.50;100.00
76605;BME280;73179;50.978;16.998;2024-03-06T03:49:09;100537.88;;;3.34;100.00
76605;BME280;73179;50.978;16.998;2024-03-06T03:51:35;100532.38;;;3.29;100.00
76605;BME280;73179;50.978;16.998;2024-03-06T03:54:02;100544.72;;;3.30;100.00
76605;BME280;73179;50.978;16.998;2024-03-06T03:56:28;100543.41;;;3.21;100.00
76605;BME280;73179;50.978;16.998;2024-03-06T03:58:55;100582.91;;;3.38;100.00
76605;BME280;73179;50.978;16.998;2024-03-06T04:01:21;100546.16;;;3.15;100.00
76605;BME280;73179;50.978;16.998;2024-03-06T04:03:48;100587.75;;;3.29;100.00
76605;BME280;73179;50.978;16.998;2024-03-06T04:06:14;100564.16;;;3.08;100.00
76605;BME280;73179;50.978;16.998;2024-03-06T04:08:40;100582.59;;;3.16;100.00
76605;BME280;73179;50.978;16.998;2024-03-06T04:11:07;100594.09;;;3.16;100.00
76605;BME280;73179;50.978;16.998;2024-03-06T04:13:36;100574.88;;;3.08;100.00
76605;BME280;73179;50.978;16.998;2024-03-06T04:16:03;100559.78;;;2.95;100.00
76605;BME280;73179;50.978;16.998;2024-03-06T04:18:30;100593.59;;;3.08;100.00
76605;BME280;73179;50.978;16.998;2024-03-06T04:21:05;100565.81;;;2.91;100.00
76605;BME280;73179;50.978;16.998;2024-03-06T04:23:31;100568.19;;;2.80;100.00
76605;BME280;73179;50.978;16.998;2024-03-06T04:25:59;100590.59;;;2.98;100.00
76605;BME280;73179;50.978;16.998;2024-03-06T04:28:25;100598.19;;;3.01;100.00
76605;BME280;73179;50.978;16.998;2024-03-06T04:30:51;100561.75;;;2.70;100.00
76605;BME280;73179;50.978;16.998;2024-03-06T04:33:17;100549.91;;;2.59;100.00
76605;BME280;73179;50.978;16.998;2024-03-06T04:35:43;100529.44;;;2.35;100.00
76605;BME280;73179;50.978;16.998;2024-03-06T04:38:08;100598.47;;;2.74;100.00
76605;BME280;73179;50.978;16.998;2024-03-06T04:40:35;100578.56;;;2.52;100.00
76605;BME280;73179;50.978;16.998;2024-03-06T04:43:01;100549.00;;;2.29;100.00
76605;BME280;73179;50.978;16.998;2024-03-06T04:45:27;100625.28;;;2.68;100.00
76605;BME280;73179;50.978;16.998;2024-03-06T04:47:55;100621.34;;;2.70;100.00
76605;BME280;73179;50.978;16.998;2024-03-06T04:50:21;100580.63;;;2.32;100.00
76605;BME280;73179;50.978;16.998;2024-03-06T04:52:47;100588.69;;;2.25;100.00
76605;BME280;73179;50.978;16.998;2024-03-06T04:55:13;100623.84;;;2.47;100.00
76605;BME280;73179;50.978;16.998;2024-03-06T04:57:43;100628.78;;;2.44;100.00
76605;BME280;73179;50.978;16.998;2024-03-06T05:00:13;100602.88;;;2.26;100.00
76605;BME280;73179;50.978;16.998;2024-03-06T05:02:39;100631.22;;;2.27;100.00
76605;BME280;73179;50.978;16.998;2024-03-06T05:05:07;100601.78;;;2.09;100.00
76605;BME280;73179;50.978;16.998;2024-03-06T05:07:33;100562.38;;;1.79;100.00
76605;BME280;73179;50.978;16.998;2024-03-06T05:10:00;100597.50;;;2.08;100.00
76605;BME280;73179;50.978;16.998;2024-03-06T05:12:26;100632.84;;;2.28;100.00
76605;BME280;73179;50.978;16.998;2024-03-06T05:14:53;100635.75;;;2.26;100.00
76605;BME280;73179;50.978;16.998;2024-03-06T05:17:19;100638.19;;;2.28;100.00
76605;BME280;73179;50.978;16.998;2024-03-06T05:19:46;100635.09;;;2.31;100.00
76605;BME280;73179;50.978;16.998;2024-03-06T05:22:13;100554.53;;;1.60;100.00
76605;BME280;73179;50.978;16.998;2024-03-06T05:24:40;100632.78;;;2.10;100.00
76605;BME280;73179;50.978;16.998;2024-03-06T05:27:06;100590.88;;;1.85;100.00
76605;BME280;73179;50.978;16.998;2024-03-06T05:29:32;100587.81;;;1.82;100.00
76605;BME280;73179;50.978;16.998;2024-03-06T05:31:58;100631.38;;;2.07;100.00
76605;BME280;73179;50.978;16.998;2024-03-06T05:34:24;100632.59;;;2.11;100.00
76605;BME280;73179;50.978;16.998;2024-03-06T05:36:52;100647.00;;;2.28;100.00
76605;BME280;73179;50.978;16.998;2024-03-06T05:39:18;100639.88;;;2.22;100.00
76605;BME280;73179;50.978;16.998;2024-03-06T05:41:44;100638.59;;;2.31;100.00
76605;BME280;73179;50.978;16.998;2024-03-06T05:44:10;100593.63;;;2.04;100.00
76605;BME280;73179;50.978;16.998;2024-03-06T05:46:35;100635.69;;;2.33;100.00
76605;BME280;73179;50.978;16.998;2024-03-06T05:49:02;100655.50;;;2.44;100.00
76605;BME280;73179;50.978;16.998;2024-03-06T05:51:29;100631.16;;;2.33;100.00
76605;BME280;73179;50.978;16.998;2024-03-06T05:53:55;100629.50;;;2.32;100.00
76605;BME280;73179;50.978;16.998;2024-03-06T05:56:20;100594.38;;;2.11;100.00
76605;BME280;73179;50.978;16.998;2024-03-06T05:58:46;100668.75;;;2.57;100.00
76605;BME280;73179;50.978;16.998;2024-03-06T06:01:16;100626.81;;;2.39;100.00
76605;BME280;73179;50.978;16.998;2024-03-06T06:03:49;100671.00;;;2.60;100.00
76605;BME280;73179;50.978;16.998;2024-03-06T06:06:18;100620.47;;;2.33;100.00
76605;BME280;73179;50.978;16.998;2024-03-06T06:08:47;100616.81;;;2.28;100.00
76605;BME280;73179;50.978;16.998;2024-03-06T06:11:12;100674.28;;;2.62;100.00
76605;BME280;73179;50.978;16.998;2024-03-06T06:13:39;100645.59;;;2.51;100.00
76605;BME280;73179;50.978;16.998;2024-03-06T06:16:05;100657.03;;;2.58;100.00
76605;BME280;73179;50.978;16.998;2024-03-06T06:18:33;100662.84;;;2.55;100.00
76605;BME280;73179;50.978;16.998;2024-03-06T06:20:59;100647.81;;;2.35;100.00
76605;BME280;73179;50.978;16.998;2024-03-06T06:23:25;100646.16;;;2.34;100.00
76605;BME280;73179;50.978;16.998;2024-03-06T06:25:51;100616.59;;;2.29;100.00
76605;BME280;73179;50.978;16.998;2024-03-06T06:28:17;100651.84;;;2.63;100.00
76605;BME280;73179;50.978;16.998;2024-03-06T06:30:43;100690.91;;;2.64;100.00
76605;BME280;73179;50.978;16.998;2024-03-06T06:33:09;100674.75;;;2.52;100.00
76605;BME280;73179;50.978;16.998;2024-03-06T06:35:35;100692.75;;;2.63;100.00
76605;BME280;73179;50.978;16.998;2024-03-06T06:38:01;100701.94;;;2.74;100.00
76605;BME280;73179;50.978;16.998;2024-03-06T06:40:28;100707.56;;;2.84;100.00
76605;BME280;73179;50.978;16.998;2024-03-06T06:42:54;100670.81;;;2.79;100.00
76605;BME280;73179;50.978;16.998;2024-03-06T06:45:20;100691.63;;;2.96;100.00
76605;BME280;73179;50.978;16.998;2024-03-06T06:47:48;100689.94;;;3.01;100.00
76605;BME280;73179;50.978;16.998;2024-03-06T06:50:15;100702.63;;;3.06;100.00
76605;BME280;73179;50.978;16.998;2024-03-06T06:52:42;100688.50;;;3.17;100.00
76605;BME280;73179;50.978;16.998;2024-03-06T06:55:08;100696.53;;;3.17;100.00
76605;BME280;73179;50.978;16.998;2024-03-06T06:57:38;100656.03;;;2.77;100.00
76605;BME280;73179;50.978;16.998;2024-03-06T07:00:04;100683.41;;;3.15;100.00
76605;BME280;73179;50.978;16.998;2024-03-06T07:02:40;100712.81;;;3.15;100.00
76605;BME280;73179;50.978;16.998;2024-03-06T07:05:09;100706.88;;;3.31;100.00
76605;BME280;73179;50.978;16.998;2024-03-06T07:07:36;100723.25;;;2.99;100.00
76605;BME280;73179;50.978;16.998;2024-03-06T07:10:02;100689.97;;;2.76;100.00
76605;BME280;73179;50.978;16.998;2024-03-06T07:12:29;100724.19;;;3.11;100.00
76605;BME280;73179;50.978;16.998;2024-03-06T07:14:56;100656.59;;;2.61;100.00
76605;BME280;73179;50.978;16.998;2024-03-06T07:17:22;100702.34;;;3.14;100.00
76605;BME280;73179;50.978;16.998;2024-03-06T07:19:48;100674.09;;;3.18;100.00
76605;BME280;73179;50.978;16.998;2024-03-06T07:22:14;100699.81;;;3.37;100.00
76605;BME280;73179;50.978;16.998;2024-03-06T07:24:40;100657.38;;;3.22;100.00
76605;BME280;73179;50.978;16.998;2024-03-06T07:27:08;100684.28;;;3.27;100.00
76605;BME280;73179;50.978;16.998;2024-03-06T07:29:37;100705.38;;;3.54;100.00
76605;BME280;73179;50.978;16.998;2024-03-06T07:32:05;100703.44;;;3.61;100.00
76605;BME280;73179;50.978;16.998;2024-03-06T07:34:31;100719.50;;;3.91;100.00
76605;BME280;73179;50.978;16.998;2024-03-06T07:36:58;100708.31;;;3.82;100.00
76605;BME280;73179;50.978;16.998;2024-03-06T07:39:25;100727.59;;;4.02;100.00
76605;BME280;73179;50.978;16.998;2024-03-06T07:41:51;100694.38;;;3.92;100.00
76605;BME280;73179;50.978;16.998;2024-03-06T07:44:17;100724.59;;;4.10;100.00
76605;BME280;73179;50.978;16.998;2024-03-06T07:46:43;100605.16;;;3.20;100.00
76605;BME280;73179;50.978;16.998;2024-03-06T07:49:09;100683.19;;;3.95;100.00
76605;BME280;73179;50.978;16.998;2024-03-06T07:51:35;100738.13;;;4.15;100.00
76605;BME280;73179;50.978;16.998;2024-03-06T07:54:06;100727.94;;;4.36;100.00
76605;BME280;73179;50.978;16.998;2024-03-06T07:56:33;100739.94;;;4.45;100.00
76605;BME280;73179;50.978;16.998;2024-03-06T07:59:00;100737.63;;;4.60;100.00
76605;BME280;73179;50.978;16.998;2024-03-06T08:01:26;100727.16;;;4.58;100.00
76605;BME280;73179;50.978;16.998;2024-03-06T08:03:54;100740.56;;;4.47;100.00
76605;BME280;73179;50.978;16.998;2024-03-06T08:06:21;100731.50;;;4.59;100.00
76605;BME280;73179;50.978;16.998;2024-03-06T08:08:47;100734.28;;;4.64;100.00
76605;BME280;73179;50.978;16.998;2024-03-06T08:11:15;100739.66;;;4.88;100.00
76605;BME280;73179;50.978;16.998;2024-03-06T08:13:41;100742.81;;;4.96;100.00
76605;BME280;73179;50.978;16.998;2024-03-06T08:16:07;100749.78;;;4.62;100.00
76605;BME280;73179;50.978;16.998;2024-03-06T08:18:34;100691.31;;;4.29;100.00
76605;BME280;73179;50.978;16.998;2024-03-06T08:21:00;100728.44;;;4.56;100.00
76605;BME280;73179;50.978;16.998;2024-03-06T08:23:27;100731.97;;;4.91;100.00
76605;BME280;73179;50.978;16.998;2024-03-06T08:25:53;100720.78;;;4.94;100.00
76605;BME280;73179;50.978;16.998;2024-03-06T08:28:18;100687.78;;;4.82;100.00
76605;BME280;73179;50.978;16.998;2024-03-06T08:30:44;100723.81;;;5.09;100.00
76605;BME280;73179;50.978;16.998;2024-03-06T08:33:11;100717.63;;;4.97;100.00
76605;BME280;73179;50.978;16.998;2024-03-06T08:35:39;100733.94;;;5.31;100.00
76605;BME280;73179;50.978;16.998;2024-03-06T08:38:05;100732.53;;;5.28;100.00
76605;BME280;73179;50.978;16.998;2024-03-06T08:40:32;100707.94;;;5.19;100.00
76605;BME280;73179;50.978;16.998;2024-03-06T08:42:57;100725.19;;;5.23;100.00
76605;BME280;73179;50.978;16.998;2024-03-06T08:45:24;100717.59;;;5.32;100.00
76605;BME280;73179;50.978;16.998;2024-03-06T08:47:50;100738.47;;;5.42;100.00
76605;BME280;73179;50.978;16.998;2024-03-06T08:50:17;100745.38;;;5.03;100.00
76605;BME280;73179;50.978;16.998;2024-03-06T08:52:45;100729.53;;;5.13;100.00
76605;BME280;73179;50.978;16.998;2024-03-06T08:55:11;100739.91;;;5.33;100.00
76605;BME280;73179;50.978;16.998;2024-03-06T08:57:41;100714.22;;;5.37;100.00
76605;BME280;73179;50.978;16.998;2024-03-06T09:00:20;100697.94;;;5.55;100.00
76605;BME280;73179;50.978;16.998;2024-03-06T09:02:49;100707.56;;;5.79;100.00
76605;BME280;73179;50.978;16.998;2024-03-06T09:05:15;100717.72;;;5.77;100.00
76605;BME280;73179;50.978;16.998;2024-03-06T09:07:41;100725.22;;;6.03;100.00
76605;BME280;73179;50.978;16.998;2024-03-06T09:10:07;100749.41;;;6.03;100.00
76605;BME280;73179;50.978;16.998;2024-03-06T09:12:34;100734.75;;;5.94;100.00
76605;BME280;73179;50.978;16.998;2024-03-06T09:15:01;100692.53;;;5.66;100.00
76605;BME280;73179;50.978;16.998;2024-03-06T09:17:27;100731.47;;;5.92;100.00
76605;BME280;73179;50.978;16.998;2024-03-06T09:19:53;100758.91;;;6.22;100.00
76605;BME280;73179;50.978;16.998;2024-03-06T09:22:22;100697.91;;;5.66;100.00
76605;BME280;73179;50.978;16.998;2024-03-06T09:24:48;100752.16;;;5.92;100.00
76605;BME280;73179;50.978;16.998;2024-03-06T09:27:14;100735.13;;;5.86;100.00
76605;BME280;73179;50.978;16.998;2024-03-06T09:29:41;100741.50;;;6.25;100.00
76605;BME280;73179;50.978;16.998;2024-03-06T09:32:06;100726.09;;;5.92;100.00
76605;BME280;73179;50.978;16.998;2024-03-06T09:34:38;100745.47;;;6.06;100.00
76605;BME280;73179;50.978;16.998;2024-03-06T09:37:04;100752.88;;;6.15;100.00
76605;BME280;73179;50.978;16.998;2024-03-06T09:39:29;100738.09;;;6.01;100.00
76605;BME280;73179;50.978;16.998;2024-03-06T09:41:55;100756.38;;;6.16;100.00
76605;BME280;73179;50.978;16.998;2024-03-06T09:44:23;100753.81;;;6.38;100.00
76605;BME280;73179;50.978;16.998;2024-03-06T09:46:49;100742.56;;;6.24;100.00
76605;BME280;73179;50.978;16.998;2024-03-06T09:49:17;100757.53;;;6.20;100.00
76605;BME280;73179;50.978;16.998;2024-03-06T09:51:47;100758.09;;;6.22;100.00
76605;BME280;73179;50.978;16.998;2024-03-06T09:54:16;100703.25;;;6.06;100.00
76605;BME280;73179;50.978;16.998;2024-03-06T09:56:47;100704.81;;;6.19;100.00
76605;BME280;73179;50.978;16.998;2024-03-06T09:59:14;100746.50;;;6.50;100.00
76605;BME280;73179;50.978;16.998;2024-03-06T10:01:58;100749.38;;;6.60;100.00
76605;BME280;73179;50.978;16.998;2024-03-06T10:04:28;100759.97;;;7.00;100.00
76605;BME280;73179;50.978;16.998;2024-03-06T10:06:59;100755.66;;;6.99;100.00
76605;BME280;73179;50.978;16.998;2024-03-06T10:09:25;100761.19;;;6.92;100.00
76605;BME280;73179;50.978;16.998;2024-03-06T10:11:52;100745.22;;;6.86;100.00
76605;BME280;73179;50.978;16.998;2024-03-06T10:14:19;100715.47;;;6.59;100.00
76605;BME280;73179;50.978;16.998;2024-03-06T10:16:58;100765.38;;;6.83;100.00
76605;BME280;73179;50.978;16.998;2024-03-06T10:19:25;100749.31;;;6.72;100.00
76605;BME280;73179;50.978;16.998;2024-03-06T10:21:55;100769.13;;;6.99;100.00
76605;BME280;73179;50.978;16.998;2024-03-06T10:24:27;100743.75;;;6.78;100.00
76605;BME280;73179;50.978;16.998;2024-03-06T10:26:57;100720.59;;;6.77;100.00
76605;BME280;73179;50.978;16.998;2024-03-06T10:29:24;100727.03;;;6.59;100.00
76605;BME280;73179;50.978;16.998;2024-03-06T10:31:52;100756.47;;;6.83;100.00
76605;BME280;73179;50.978;16.998;2024-03-06T10:34:18;100698.09;;;6.33;100.00
76605;BME280;73179;50.978;16.998;2024-03-06T10:36:45;100749.94;;;6.62;100.00
76605;BME280;73179;50.978;16.998;2024-03-06T10:39:12;100720.75;;;6.54;100.00
76605;BME280;73179;50.978;16.998;2024-03-06T10:41:42;100780.78;;;6.71;100.00
76605;BME280;73179;50.978;16.998;2024-03-06T10:44:11;100748.38;;;6.49;100.00
76605;BME280;73179;50.978;16.998;2024-03-06T10:46:44;100763.13;;;6.80;100.00
76605;BME280;73179;50.978;16.998;2024-03-06T10:49:13;100693.22;;;6.47;100.00
76605;BME280;73179;50.978;16.998;2024-03-06T10:51:40;100768.22;;;6.93;100.00
76605;BME280;73179;50.978;16.998;2024-03-06T10:54:11;100693.03;;;6.53;100.00
76605;BME280;73179;50.978;16.998;2024-03-06T10:56:40;100773.50;;;7.05;100.00
76605;BME280;73179;50.978;16.998;2024-03-06T10:59:12;100754.06;;;7.03;100.00
76605;BME280;73179;50.978;16.998;2024-03-06T11:01:39;100725.16;;;6.93;100.00
76605;BME280;73179;50.978;16.998;2024-03-06T11:04:06;100705.03;;;6.79;100.00
76605;BME280;73179;50.978;16.998;2024-03-06T11:06:33;100758.81;;;7.12;100.00
76605;BME280;73179;50.978;16.998;2024-03-06T11:09:01;100761.81;;;7.16;100.00
76605;BME280;73179;50.978;16.998;2024-03-06T11:11:29;100740.16;;;6.89;100.00
76605;BME280;73179;50.978;16.998;2024-03-06T11:13:56;100721.91;;;6.75;100.00
76605;BME280;73179;50.978;16.998;2024-03-06T11:16:31;100726.16;;;6.87;100.00
76605;BME280;73179;50.978;16.998;2024-03-06T11:19:06;100755.47;;;7.05;100.00
76605;BME280;73179;50.978;16.998;2024-03-06T11:21:33;100695.09;;;6.63;100.00
76605;BME280;73179;50.978;16.998;2024-03-06T11:26:37;100767.22;;;6.99;100.00
76605;BME280;73179;50.978;16.998;2024-03-06T11:29:09;100756.94;;;6.96;100.00
76605;BME280;73179;50.978;16.998;2024-03-06T11:31:34;100733.41;;;6.70;100.00
76605;BME280;73179;50.978;16.998;2024-03-06T11:34:04;100710.81;;;6.54;100.00
76605;BME280;73179;50.978;16.998;2024-03-06T11:36:30;100706.00;;;6.40;100.00
76605;BME280;73179;50.978;16.998;2024-03-06T11:44:02;100725.91;;;6.10;100.00
76605;BME280;73179;50.978;16.998;2024-03-06T11:49:19;100751.19;;;6.26;100.00
76605;BME280;73179;50.978;16.998;2024-03-06T11:51:47;100731.09;;;6.00;100.00
76605;BME280;73179;50.978;16.998;2024-03-06T11:54:14;100712.09;;;5.90;100.00
76605;BME280;73179;50.978;16.998;2024-03-06T11:56:40;100747.94;;;6.24;100.00
76605;BME280;73179;50.978;16.998;2024-03-06T11:59:06;100614.63;;;5.38;100.00
76605;BME280;73179;50.978;16.998;2024-03-06T12:01:37;100664.63;;;5.67;100.00
76605;BME280;73179;50.978;16.998;2024-03-06T12:04:03;100745.84;;;6.14;100.00
76605;BME280;73179;50.978;16.998;2024-03-06T12:06:33;100698.34;;;5.75;100.00
76605;BME280;73179;50.978;16.998;2024-03-06T12:08:59;100652.19;;;5.50;100.00
76605;BME280;73179;50.978;16.998;2024-03-06T12:11:25;100678.19;;;5.61;100.00
76605;BME280;73179;50.978;16.998;2024-03-06T12:13:55;100733.78;;;6.00;100.00
76605;BME280;73179;50.978;16.998;2024-03-06T12:16:21;100729.38;;;5.94;100.00
76605;BME280;73179;50.978;16.998;2024-03-06T12:18:54;100681.56;;;5.56;100.00
76605;BME280;73179;50.978;16.998;2024-03-06T12:21:27;100745.00;;;5.97;100.00
76605;BME280;73179;50.978;16.998;2024-03-06T12:24:04;100693.47;;;5.60;100.00
76605;BME280;73179;50.978;16.998;2024-03-06T12:26:30;100736.84;;;5.92;100.00
76605;BME280;73179;50.978;16.998;2024-03-06T12:29:10;100749.53;;;6.08;100.00
76605;BME280;73179;50.978;16.998;2024-03-06T12:31:38;100756.88;;;6.13;100.00
76605;BME280;73179;50.978;16.998;2024-03-06T12:34:08;100731.28;;;6.10;100.00
76605;BME280;73179;50.978;16.998;2024-03-06T12:36:34;100757.81;;;6.35;100.00
76605;BME280;73179;50.978;16.998;2024-03-06T12:39:02;100766.69;;;6.36;100.00
76605;BME280;73179;50.978;16.998;2024-03-06T12:41:29;100750.63;;;6.24;100.00
76605;BME280;73179;50.978;16.998;2024-03-06T12:43:56;100748.97;;;6.23;100.00
76605;BME280;73179;50.978;16.998;2024-03-06T12:46:25;100725.91;;;6.10;100.00
76605;BME280;73179;50.978;16.998;2024-03-06T12:48:52;100719.97;;;6.08;100.00
76605;BME280;73179;50.978;16.998;2024-03-06T12:51:18;100728.44;;;6.17;100.00